Aeroporto :
LOGIN :

Iscrizione | Disclaimer

   EN    FR    IT 

 










Sommario :    VFR   VFR Marginale   IFR   IFR Intensivo   IFR Molto Intensivo
Visibilità : 
Base nubi : 
>= 8 km
>= 3000ft
5 / 8 km
1000 / 3000 ft
1500m / 5 km
500 / 1000 ft
800 / 1500m
200 / 500 ft
< 800m
< 200 ft
Simboli :   Temporali  Nebbia  Neve Forte  Precipitazioni Forti  Vento > 20 kt
SIGMETs :   Varie  Temporali  Ghiacco  Turbolenza  Onda orograficha  Ceneri Vulcaniche






- Altitudine del aeroporto : 297 ft
- Codice IATA : UIP


LFRQ - Quimper Pluguffan

ULTIMO METAR :
  • 200600Z AUTO 18010KT 9999 OVC008 15/14 Q1001 NOSIG

METARs OBSOLETI :
  • 200530Z AUTO 19009KT 160V220 9999 BKN008 OVC015 14/14 Q1002 NOSIG
  • 200500Z AUTO 19010KT 9999 BKN008 OVC016 14/14 Q1002
  • 200430Z AUTO 19010KT 9999 BKN006 OVC250 14/14 Q1002
  • 200400Z AUTO 19009KT 9999 BKN007 BKN250 14/13 Q1001
  • 200330Z AUTO 20011KT 9999 OVC006 14/14 Q1002
  • 200300Z AUTO 21013KT 180V240 9999 OVC006 15/14 Q1001

TAF TAF LFRQ
Valido dal 20 a 06 ore il 21 a 06 ore UTC


200500Z 2006/2106 20010KT 9999 BKN013
TEMPO 2006/2009 BKN006
BECMG 2011/2013 BKN020
BECMG 2019/2021 12008KT 4500 -RA BKN013
TEMPO 2021/2106 2500 RA BKN002
BECMG 2104/2106 30010KT



MetMap, La meteo Aeronautica in un colpo d'occhio ! - Copyright ORBIFLY Dicembre 2007 - Disclaimer

ORBIFLY MET'MAP TEAM :

Programmazione e sviluppo : Alexandra Zaïnal
Concezione : Baudouin d'Aumeries
Aiuto per la programmazione : Marc-Olivier Méhu
Supporto tecnico e logistico : Manuel Goepfert
Aiuto per la traduzione : Arnaldo La Scala

Contatto : metmap@orbifly.com




FONTI E CREDITI :

   NOAA